createdAt,value
2022-12-01T00:01:20.881Z,4.00
2022-12-01T00:03:49.545Z,4.00
2022-12-01T00:06:19.293Z,4.00
2022-12-01T00:09:02.829Z,4.00
2022-12-01T00:11:31.019Z,4.00
2022-12-01T00:13:59.000Z,4.00
2022-12-01T00:16:28.278Z,4.00
2022-12-01T00:18:56.680Z,4.00
2022-12-01T00:21:25.746Z,4.00
2022-12-01T00:23:56.380Z,4.00
2022-12-01T00:26:25.391Z,3.90
2022-12-01T00:28:54.512Z,3.80
2022-12-01T00:31:22.995Z,3.80
2022-12-01T00:33:52.392Z,3.80
2022-12-01T00:36:20.549Z,3.80
2022-12-01T00:38:48.719Z,3.90
2022-12-01T00:41:16.580Z,3.90
2022-12-01T00:43:44.498Z,3.80
2022-12-01T00:46:12.536Z,3.80
2022-12-01T00:48:40.550Z,3.80
2022-12-01T00:51:09.847Z,3.90
2022-12-01T00:53:37.759Z,3.80
2022-12-01T00:56:05.962Z,3.80
2022-12-01T00:58:33.890Z,3.80
2022-12-01T01:01:03.311Z,3.70
2022-12-01T01:03:31.999Z,3.70
2022-12-01T01:06:05.665Z,3.60
2022-12-01T01:08:35.229Z,3.60
2022-12-01T01:11:04.104Z,3.60
2022-12-01T01:13:32.531Z,3.50
2022-12-01T01:16:01.910Z,3.40
2022-12-01T01:18:30.436Z,3.40
2022-12-01T01:20:59.493Z,3.40
2022-12-01T01:23:27.906Z,3.40
2022-12-01T01:26:02.996Z,3.40
2022-12-01T01:28:31.645Z,3.40
2022-12-01T01:30:59.811Z,3.40
2022-12-01T01:33:27.792Z,3.40
2022-12-01T01:35:59.934Z,3.40
2022-12-01T01:38:28.208Z,3.50
2022-12-01T01:40:57.585Z,3.50
2022-12-01T01:43:42.007Z,3.50
2022-12-01T01:46:12.660Z,3.40
2022-12-01T01:48:43.117Z,3.40
2022-12-01T01:51:13.104Z,3.40
2022-12-01T01:53:41.579Z,3.40
2022-12-01T01:56:11.108Z,3.30
2022-12-01T01:58:40.282Z,3.30
2022-12-01T02:01:08.814Z,3.40
2022-12-01T02:03:38.296Z,3.30
2022-12-01T02:06:07.393Z,3.30
2022-12-01T02:08:38.155Z,3.30
2022-12-01T02:11:48.481Z,3.30
2022-12-01T02:14:32.836Z,3.30
2022-12-01T02:17:10.268Z,3.40
2022-12-01T02:20:10.608Z,3.40
2022-12-01T02:22:54.096Z,3.40
2022-12-01T02:25:32.125Z,3.50
2022-12-01T02:28:22.447Z,3.50
2022-12-01T02:30:54.505Z,3.50
2022-12-01T02:33:26.497Z,3.50
2022-12-01T02:36:02.696Z,3.50
2022-12-01T02:38:36.141Z,3.50
2022-12-01T02:41:11.654Z,3.50
2022-12-01T02:43:44.737Z,3.50
2022-12-01T02:46:19.245Z,3.50
2022-12-01T02:48:52.457Z,3.60
2022-12-01T02:51:25.596Z,3.60
2022-12-01T02:53:55.762Z,3.60
2022-12-01T02:56:24.329Z,3.70
2022-12-01T02:58:52.806Z,3.70
2022-12-01T03:01:39.139Z,3.70
2022-12-01T03:04:31.944Z,3.70
2022-12-01T03:07:08.849Z,3.70
2022-12-01T03:09:47.988Z,3.70
2022-12-01T03:12:21.895Z,3.60
2022-12-01T03:15:00.333Z,3.70
2022-12-01T03:17:36.405Z,3.70
2022-12-01T03:20:11.725Z,3.70
2022-12-01T03:22:45.453Z,3.60
2022-12-01T03:25:16.138Z,3.60
2022-12-01T03:28:13.447Z,3.60
2022-12-01T03:30:38.263Z,3.60
2022-12-01T03:33:15.002Z,3.60
2022-12-01T03:35:50.037Z,3.60
2022-12-01T03:38:22.412Z,3.60
2022-12-01T03:40:53.935Z,3.60
2022-12-01T03:43:27.444Z,3.50
2022-12-01T03:46:00.168Z,3.50
2022-12-01T03:48:30.572Z,3.50
2022-12-01T03:51:07.126Z,3.50
2022-12-01T03:53:44.811Z,3.50
2022-12-01T03:56:15.037Z,3.60
2022-12-01T03:58:46.333Z,3.60
2022-12-01T04:01:14.336Z,3.60
2022-12-01T04:03:46.276Z,3.60
2022-12-01T04:06:14.262Z,3.60
2022-12-01T04:08:42.379Z,3.60
2022-12-01T04:11:29.502Z,3.60
2022-12-01T04:14:00.472Z,3.60
2022-12-01T04:16:28.388Z,3.50
2022-12-01T04:18:57.657Z,3.50
2022-12-01T04:21:25.551Z,3.50
2022-12-01T04:24:02.425Z,3.40
2022-12-01T04:26:32.117Z,3.40
2022-12-01T04:29:00.207Z,3.40
2022-12-01T04:31:28.359Z,3.40
2022-12-01T04:33:58.378Z,3.40
2022-12-01T04:36:26.949Z,3.40
2022-12-01T04:38:54.856Z,3.50
2022-12-01T04:41:22.875Z,3.50
2022-12-01T04:43:50.825Z,3.50
2022-12-01T04:46:18.794Z,3.50
2022-12-01T04:48:46.787Z,3.50
2022-12-01T04:51:16.186Z,3.50
2022-12-01T04:53:44.135Z,3.50
2022-12-01T04:56:12.130Z,3.50
2022-12-01T04:58:40.336Z,3.50
2022-12-01T05:01:10.154Z,3.50
2022-12-01T05:03:39.133Z,3.50
2022-12-01T05:06:09.625Z,3.50
2022-12-01T05:08:39.068Z,3.50
2022-12-01T05:11:07.746Z,3.50
2022-12-01T05:13:37.476Z,3.50
2022-12-01T05:16:07.081Z,3.50
2022-12-01T05:18:35.559Z,3.50
2022-12-01T05:21:04.105Z,3.50
2022-12-01T05:23:33.856Z,3.40
2022-12-01T05:26:04.255Z,3.40
2022-12-01T05:28:32.182Z,3.50
2022-12-01T05:31:00.227Z,3.50
2022-12-01T05:33:29.385Z,3.50
2022-12-01T05:35:57.265Z,3.50
2022-12-01T05:38:25.175Z,3.50
2022-12-01T05:40:54.399Z,3.50
2022-12-01T05:43:29.028Z,3.40
2022-12-01T05:45:58.224Z,3.50
2022-12-01T05:48:26.638Z,3.50
2022-12-01T05:50:54.677Z,3.50
2022-12-01T05:53:22.768Z,3.50
2022-12-01T05:55:53.715Z,3.50
2022-12-01T05:58:23.264Z,3.60
2022-12-01T06:00:51.222Z,3.60
2022-12-01T06:03:19.214Z,3.60
2022-12-01T06:05:47.230Z,3.70
2022-12-01T06:08:15.457Z,3.70
2022-12-01T06:10:43.604Z,3.60
2022-12-01T06:13:11.689Z,3.60
2022-12-01T06:15:41.005Z,3.60
2022-12-01T06:18:09.076Z,3.60
2022-12-01T06:20:37.190Z,3.60
2022-12-01T06:23:05.239Z,3.60
2022-12-01T06:25:33.209Z,3.60
2022-12-01T06:28:01.175Z,3.60
2022-12-01T06:30:29.077Z,3.60
2022-12-01T06:32:58.335Z,3.60
2022-12-01T06:35:26.333Z,3.60
2022-12-01T06:37:54.518Z,3.60
2022-12-01T06:40:22.658Z,3.70
2022-12-01T06:42:50.901Z,3.70
2022-12-01T06:45:18.842Z,3.60
2022-12-01T06:47:48.131Z,3.60
2022-12-01T06:50:17.644Z,3.60
2022-12-01T06:52:45.669Z,3.60
2022-12-01T06:55:13.715Z,3.50
2022-12-01T06:57:43.210Z,3.50
2022-12-01T07:00:13.316Z,3.50
2022-12-01T07:02:41.539Z,3.50
2022-12-01T07:05:10.111Z,3.50
2022-12-01T07:07:40.443Z,3.50
2022-12-01T07:10:10.516Z,3.50
2022-12-01T07:12:38.873Z,3.50
2022-12-01T07:15:08.886Z,3.50
2022-12-01T07:17:37.390Z,3.50
2022-12-01T07:20:06.153Z,3.40
2022-12-01T07:22:34.164Z,3.40
2022-12-01T07:25:03.715Z,3.30
2022-12-01T07:27:32.665Z,3.30
2022-12-01T07:30:00.734Z,3.20
2022-12-01T07:32:28.676Z,3.20
2022-12-01T07:34:56.614Z,3.20
2022-12-01T07:37:24.599Z,3.10
2022-12-01T07:39:52.507Z,3.10
2022-12-01T07:42:21.726Z,3.10
2022-12-01T07:44:49.753Z,3.10
2022-12-01T07:47:17.667Z,3.10
2022-12-01T07:49:45.587Z,3.10
2022-12-01T07:52:13.563Z,3.10
2022-12-01T07:54:41.544Z,3.10
2022-12-01T07:57:09.586Z,3.20
2022-12-01T07:59:38.851Z,3.20
2022-12-01T08:02:07.158Z,3.10
2022-12-01T08:04:35.131Z,3.10
2022-12-01T08:07:03.112Z,3.10
2022-12-01T08:09:31.266Z,3.10
2022-12-01T08:11:59.192Z,3.10
2022-12-01T08:14:27.148Z,3.10
2022-12-01T08:16:56.405Z,2.90
2022-12-01T08:19:25.821Z,2.80
2022-12-01T08:21:53.743Z,2.80
2022-12-01T08:24:21.648Z,2.70
2022-12-01T08:26:49.585Z,2.80
2022-12-01T08:29:20.385Z,2.80
2022-12-01T08:31:48.820Z,2.80
2022-12-01T08:34:18.215Z,2.80
2022-12-01T08:36:46.102Z,2.80
2022-12-01T08:39:14.249Z,2.90
2022-12-01T08:41:42.136Z,2.90
2022-12-01T08:44:11.161Z,2.90
2022-12-01T08:46:39.380Z,3.00
2022-12-01T08:49:07.685Z,3.00
2022-12-01T08:51:37.319Z,3.10
2022-12-01T08:54:05.508Z,3.00
2022-12-01T08:56:35.628Z,3.10
2022-12-01T08:59:04.032Z,3.10
2022-12-01T09:01:32.915Z,3.10
2022-12-01T09:04:09.335Z,3.10
2022-12-01T09:06:42.918Z,3.20
2022-12-01T09:09:12.504Z,3.10
2022-12-01T09:11:43.595Z,3.10
2022-12-01T09:14:11.839Z,3.10
2022-12-01T09:16:39.909Z,3.10
2022-12-01T09:19:08.330Z,3.10
2022-12-01T09:21:38.017Z,3.10
2022-12-01T09:24:09.653Z,3.10
2022-12-01T09:26:37.718Z,3.10
2022-12-01T09:29:08.972Z,3.10
2022-12-01T09:31:37.291Z,3.10
2022-12-01T09:34:07.265Z,3.20
2022-12-01T09:36:38.186Z,3.20
2022-12-01T09:39:09.546Z,3.20
2022-12-01T09:41:41.544Z,3.30
2022-12-01T09:44:20.664Z,3.30
2022-12-01T09:46:52.788Z,3.30
2022-12-01T09:49:36.633Z,3.30
2022-12-01T09:52:04.634Z,3.20
2022-12-01T09:54:35.489Z,3.20
2022-12-01T09:57:03.948Z,3.20
2022-12-01T09:59:37.628Z,3.20
2022-12-01T10:02:22.887Z,3.20
2022-12-01T10:04:53.001Z,3.30
2022-12-01T10:07:25.212Z,3.30
2022-12-01T10:09:57.893Z,3.30
2022-12-01T10:12:30.828Z,3.30
2022-12-01T10:15:15.260Z,3.30
2022-12-01T10:17:52.677Z,3.20
2022-12-01T10:20:26.831Z,3.20
2022-12-01T10:23:29.739Z,3.30
2022-12-01T10:26:00.778Z,3.30
2022-12-01T10:29:05.425Z,3.30
2022-12-01T10:31:40.585Z,3.30
2022-12-01T10:34:11.945Z,3.30
2022-12-01T10:36:39.853Z,3.30
2022-12-01T10:39:08.599Z,3.30
2022-12-01T10:41:40.185Z,3.40
2022-12-01T10:44:09.605Z,3.50
2022-12-01T10:46:44.418Z,3.50
2022-12-01T10:49:14.651Z,3.50
2022-12-01T10:51:52.431Z,3.40
2022-12-01T10:54:21.219Z,3.40
2022-12-01T10:56:56.376Z,3.40
2022-12-01T10:59:29.498Z,3.40
2022-12-01T11:01:58.845Z,3.30
2022-12-01T11:04:36.941Z,3.30
2022-12-01T11:07:05.519Z,3.30
2022-12-01T11:09:33.719Z,3.30
2022-12-01T11:12:04.494Z,3.30
2022-12-01T11:14:44.629Z,3.30
2022-12-01T11:17:18.517Z,3.30
2022-12-01T11:19:46.586Z,3.30
2022-12-01T11:22:22.646Z,3.40
2022-12-01T11:25:00.341Z,3.40
2022-12-01T11:27:32.586Z,3.40
2022-12-01T11:30:04.897Z,3.50
2022-12-01T11:32:35.503Z,3.50
2022-12-01T11:35:06.948Z,3.50
2022-12-01T11:37:39.635Z,3.30
2022-12-01T11:40:16.412Z,3.30
2022-12-01T11:42:49.962Z,3.30
2022-12-01T11:45:29.622Z,3.40
2022-12-01T11:48:08.176Z,3.40
2022-12-01T11:50:38.381Z,3.40
2022-12-01T11:53:28.484Z,3.50
2022-12-01T11:56:15.680Z,3.50
2022-12-01T11:58:46.777Z,3.60
2022-12-01T12:01:22.129Z,3.60
2022-12-01T12:03:59.566Z,3.60
2022-12-01T12:06:42.456Z,3.70
2022-12-01T12:09:24.783Z,3.70
2022-12-01T12:12:04.141Z,3.70
2022-12-01T12:14:48.508Z,3.70
2022-12-01T12:17:27.644Z,3.80
2022-12-01T12:20:21.973Z,3.80
2022-12-01T12:23:03.502Z,3.80
2022-12-01T12:25:39.705Z,3.80
2022-12-01T12:28:19.567Z,3.80
2022-12-01T12:30:58.991Z,3.80
2022-12-01T12:33:52.939Z,3.80
2022-12-01T12:36:30.787Z,3.80
2022-12-01T12:39:15.001Z,3.70
2022-12-01T12:41:47.446Z,3.60
2022-12-01T12:44:43.878Z,3.50
2022-12-01T12:47:23.522Z,3.40
2022-12-01T12:49:58.865Z,3.50
2022-12-01T12:52:31.560Z,3.50
2022-12-01T12:55:04.932Z,3.60
2022-12-01T12:57:35.942Z,3.60
2022-12-01T13:00:08.803Z,3.60
2022-12-01T13:02:42.226Z,3.60
2022-12-01T13:05:17.714Z,3.60
2022-12-01T13:07:51.103Z,3.50
2022-12-01T13:10:27.095Z,3.50
2022-12-01T13:13:01.252Z,3.50
2022-12-01T13:15:31.604Z,3.50
2022-12-01T13:18:13.462Z,3.50
2022-12-01T13:20:42.229Z,3.40
2022-12-01T13:23:15.851Z,3.40
2022-12-01T13:25:44.847Z,3.40
2022-12-01T13:28:19.788Z,3.50
2022-12-01T13:31:01.040Z,3.50
2022-12-01T13:33:31.163Z,3.50
2022-12-01T13:36:44.673Z,3.60
2022-12-01T13:38:58.533Z,3.60
2022-12-01T13:41:30.399Z,3.50
2022-12-01T13:44:01.889Z,3.50
2022-12-01T13:46:33.206Z,3.50
2022-12-01T13:49:04.164Z,3.50
2022-12-01T13:52:05.665Z,3.50
2022-12-01T13:54:37.910Z,3.40
2022-12-01T13:57:11.740Z,3.50
2022-12-01T13:59:42.628Z,3.50
2022-12-01T14:02:18.845Z,3.50
2022-12-01T14:04:49.023Z,3.50
2022-12-01T14:07:24.583Z,3.40
2022-12-01T14:09:54.843Z,3.50
2022-12-01T14:12:28.569Z,3.50
2022-12-01T14:15:01.136Z,3.50
2022-12-01T14:17:31.909Z,3.50
2022-12-01T14:20:08.492Z,3.50
2022-12-01T14:22:39.517Z,3.50
2022-12-01T14:25:25.562Z,3.50
2022-12-01T14:27:56.168Z,3.50
2022-12-01T14:31:01.900Z,3.50
2022-12-01T14:33:52.061Z,3.50
2022-12-01T14:36:31.940Z,3.40
2022-12-01T14:39:04.973Z,3.40
2022-12-01T14:41:40.215Z,3.30
2022-12-01T14:44:12.940Z,3.30
2022-12-01T14:46:44.933Z,3.30
2022-12-01T14:49:17.800Z,3.30
2022-12-01T14:51:51.054Z,3.20
2022-12-01T14:54:24.783Z,3.20
2022-12-01T14:56:55.859Z,3.10
2022-12-01T14:59:26.653Z,3.10
2022-12-01T15:01:57.917Z,3.10
2022-12-01T15:04:26.150Z,3.10
2022-12-01T15:06:57.530Z,3.10
2022-12-01T15:09:35.146Z,3.10
2022-12-01T15:12:07.389Z,3.00
2022-12-01T15:14:37.266Z,3.00
2022-12-01T15:17:08.714Z,3.00
2022-12-01T15:19:39.037Z,2.90
2022-12-01T15:22:14.018Z,3.00
2022-12-01T15:24:42.718Z,3.00
2022-12-01T15:27:26.386Z,2.90
2022-12-01T15:29:54.739Z,2.90
2022-12-01T15:32:24.564Z,2.90
2022-12-01T15:34:54.974Z,2.90
2022-12-01T15:37:26.918Z,2.90
2022-12-01T15:40:43.100Z,2.80
2022-12-01T15:43:01.619Z,2.80
2022-12-01T15:45:29.686Z,2.80
2022-12-01T15:47:59.506Z,2.80
2022-12-01T15:50:31.131Z,2.80
2022-12-01T15:53:02.735Z,2.90
2022-12-01T15:55:34.046Z,2.90
2022-12-01T15:58:03.296Z,2.90
2022-12-01T16:00:31.345Z,2.90
2022-12-01T16:03:02.055Z,2.80
2022-12-01T16:05:32.523Z,2.80
2022-12-01T16:08:15.492Z,2.80
2022-12-01T16:10:43.638Z,2.80
2022-12-01T16:13:39.271Z,2.80
2022-12-01T16:16:39.411Z,2.80
2022-12-01T16:19:26.344Z,2.80
2022-12-01T16:21:57.754Z,2.80
2022-12-01T16:24:31.575Z,2.80
2022-12-01T16:27:03.056Z,2.80
2022-12-01T16:29:35.860Z,2.70
2022-12-01T16:32:21.355Z,2.70
2022-12-01T16:34:51.103Z,2.70
2022-12-01T16:37:19.327Z,2.70
2022-12-01T16:39:49.191Z,2.70
2022-12-01T16:42:20.536Z,2.70
2022-12-01T16:44:49.523Z,2.70
2022-12-01T16:47:20.338Z,2.70
2022-12-01T16:49:51.328Z,2.70
2022-12-01T16:55:31.241Z,2.70
2022-12-01T16:57:59.517Z,2.70
2022-12-01T17:00:29.386Z,2.70
2022-12-01T17:02:58.796Z,2.70
2022-12-01T17:05:27.198Z,2.60
2022-12-01T17:07:55.921Z,2.70
2022-12-01T17:10:31.908Z,2.60
2022-12-01T17:13:01.313Z,2.50
2022-12-01T17:15:29.923Z,2.60
2022-12-01T17:17:58.291Z,2.60
2022-12-01T17:20:26.418Z,2.60
2022-12-01T17:22:54.630Z,2.60
2022-12-01T17:25:22.638Z,2.60
2022-12-01T17:27:52.491Z,2.60
2022-12-01T17:30:20.755Z,2.60
2022-12-01T17:32:49.002Z,2.60
2022-12-01T17:35:18.082Z,2.60
2022-12-01T17:37:49.609Z,2.60
2022-12-01T17:40:18.045Z,2.70
2022-12-01T17:42:50.479Z,2.70
2022-12-01T17:45:20.741Z,2.60
2022-12-01T17:47:49.085Z,2.60
2022-12-01T17:50:17.706Z,2.60
2022-12-01T17:52:46.221Z,2.50
2022-12-01T17:55:14.774Z,2.50
2022-12-01T17:57:42.844Z,2.50
2022-12-01T18:00:12.033Z,2.50
2022-12-01T18:02:41.471Z,2.50
2022-12-01T18:05:10.212Z,2.50
2022-12-01T18:07:38.392Z,2.50
2022-12-01T18:10:07.453Z,2.50
2022-12-01T18:12:35.596Z,2.60
2022-12-01T18:15:04.275Z,2.60
2022-12-01T18:17:32.604Z,2.60
2022-12-01T18:20:03.120Z,2.70
2022-12-01T18:22:33.008Z,2.60
2022-12-01T18:25:05.046Z,2.70
2022-12-01T18:27:33.064Z,2.60
2022-12-01T18:30:01.412Z,2.60
2022-12-01T18:32:29.425Z,2.60
2022-12-01T18:34:57.608Z,2.60
2022-12-01T18:37:27.080Z,2.60
2022-12-01T18:39:56.475Z,2.60
2022-12-01T18:42:24.975Z,2.60
2022-12-01T18:44:53.287Z,2.60
2022-12-01T18:47:24.387Z,2.60
2022-12-01T18:49:52.869Z,2.60
2022-12-01T18:52:20.910Z,2.60
2022-12-01T18:54:50.515Z,2.60
2022-12-01T18:57:19.080Z,2.60
2022-12-01T18:59:47.461Z,2.60
2022-12-01T19:02:15.493Z,2.60
2022-12-01T19:04:43.494Z,2.60
2022-12-01T19:07:11.537Z,2.60
2022-12-01T19:09:39.661Z,2.70
2022-12-01T19:12:09.265Z,2.70
2022-12-01T19:14:37.534Z,2.60
2022-12-01T19:17:05.512Z,2.60
2022-12-01T19:19:37.409Z,2.60
2022-12-01T19:22:05.893Z,2.60
2022-12-01T19:24:33.812Z,2.60
2022-12-01T19:27:01.862Z,2.60
2022-12-01T19:29:31.201Z,2.60
2022-12-01T19:31:59.266Z,2.60
2022-12-01T19:34:27.312Z,2.50
2022-12-01T19:36:56.719Z,2.50
2022-12-01T19:39:25.048Z,2.50
2022-12-01T19:41:53.656Z,2.50
2022-12-01T19:44:21.626Z,2.60
2022-12-01T19:46:51.054Z,2.50
2022-12-01T19:49:18.956Z,2.60
2022-12-01T19:51:47.094Z,2.50
2022-12-01T19:54:17.590Z,2.60
2022-12-01T19:56:46.335Z,2.50
2022-12-01T19:59:14.937Z,2.50
2022-12-01T20:01:43.156Z,2.50
2022-12-01T20:04:12.698Z,2.60
2022-12-01T20:06:40.714Z,2.60
2022-12-01T20:09:09.637Z,2.60
2022-12-01T20:11:37.830Z,2.60
2022-12-01T20:14:08.058Z,2.60
2022-12-01T20:16:36.185Z,2.60
2022-12-01T20:19:06.022Z,2.60
2022-12-01T20:21:39.210Z,2.60
2022-12-01T20:24:09.217Z,2.60
2022-12-01T20:26:39.253Z,2.60
2022-12-01T20:29:09.154Z,2.60
2022-12-01T20:31:37.878Z,2.60
2022-12-01T20:34:08.876Z,2.60
2022-12-01T20:36:38.662Z,2.60
2022-12-01T20:39:08.481Z,2.50
2022-12-01T20:41:36.836Z,2.50
2022-12-01T20:44:07.516Z,2.50
2022-12-01T20:46:36.095Z,2.50
2022-12-01T20:49:05.437Z,2.50
2022-12-01T20:51:33.527Z,2.50
2022-12-01T20:56:52.035Z,2.50
2022-12-01T20:59:20.017Z,2.60
2022-12-01T21:01:47.981Z,2.50
2022-12-01T21:04:15.953Z,2.40
2022-12-01T21:06:43.921Z,2.40
2022-12-01T21:09:14.632Z,2.30
2022-12-01T21:12:04.013Z,2.30
2022-12-01T21:14:37.737Z,2.20
2022-12-01T21:17:17.326Z,2.20
2022-12-01T21:19:52.328Z,2.20
2022-12-01T21:22:20.276Z,2.20
2022-12-01T21:24:52.922Z,2.20
2022-12-01T21:27:21.294Z,2.20
2022-12-01T21:29:50.928Z,2.30
2022-12-01T21:32:34.584Z,2.20
2022-12-01T21:35:09.850Z,2.10
2022-12-01T21:37:37.989Z,2.20
2022-12-01T21:40:16.745Z,2.10
2022-12-01T21:42:44.752Z,2.10
2022-12-01T21:45:25.886Z,2.20
2022-12-01T21:47:53.962Z,2.20
2022-12-01T21:50:24.586Z,2.20
2022-12-01T21:52:52.632Z,2.20
2022-12-01T21:55:38.284Z,2.20
2022-12-01T21:58:30.916Z,2.20
2022-12-01T22:01:00.119Z,2.20
2022-12-01T22:03:33.912Z,2.20
2022-12-01T22:06:35.785Z,2.20
2022-12-01T22:09:13.687Z,2.20
2022-12-01T22:11:44.085Z,2.20
2022-12-01T22:14:15.941Z,2.30
2022-12-01T22:16:45.261Z,2.30
2022-12-01T22:19:25.789Z,2.30
2022-12-01T22:22:00.395Z,2.20
2022-12-01T22:24:40.521Z,2.20
2022-12-01T22:27:27.086Z,2.20
2022-12-01T22:29:59.229Z,2.20
2022-12-01T22:32:39.328Z,2.20
2022-12-01T22:35:28.697Z,2.20
2022-12-01T22:38:01.683Z,2.20
2022-12-01T22:40:38.783Z,2.20
2022-12-01T22:43:28.200Z,2.10
2022-12-01T22:46:21.411Z,2.10
2022-12-01T22:48:51.590Z,2.10
2022-12-01T22:51:25.935Z,2.10
2022-12-01T22:53:59.458Z,2.10
2022-12-01T22:56:37.971Z,2.10
2022-12-01T22:59:16.417Z,2.10
2022-12-01T23:01:52.438Z,2.10
2022-12-01T23:04:27.280Z,2.10
2022-12-01T23:06:59.569Z,2.10
2022-12-01T23:09:32.476Z,2.10
2022-12-01T23:12:05.395Z,2.10
2022-12-01T23:14:35.653Z,2.10
2022-12-01T23:17:08.828Z,2.10
2022-12-01T23:19:37.001Z,2.10
2022-12-01T23:22:04.954Z,2.10
2022-12-01T23:24:34.175Z,2.00
2022-12-01T23:27:02.272Z,2.00
2022-12-01T23:29:31.246Z,2.10
2022-12-01T23:32:00.508Z,2.10
2022-12-01T23:34:29.583Z,2.10
2022-12-01T23:36:57.922Z,2.10
2022-12-01T23:39:36.194Z,2.10
2022-12-01T23:42:04.216Z,2.00
2022-12-01T23:44:40.010Z,2.10
2022-12-01T23:47:20.262Z,2.10
2022-12-01T23:49:51.946Z,2.10
2022-12-01T23:52:21.959Z,2.10
2022-12-01T23:54:50.207Z,2.10
2022-12-01T23:57:21.572Z,2.10
2022-12-01T23:59:50.352Z,2.10
